Latest Coastal Weather Observations for Cerberus

IDV60701

Issued at 9:22 pm EDT Wednesday 7 December 2022 (issued every 10 minutes, with the page automatically refreshed every 10 minutes)

About coastal observations | Map of coastal stations | Coastal observations for VIC | Marine services | Other Formats
Station Details ID: 086361 Name: CERBERUS Lat: -38.36 Lon: 145.18 Height: 12.69 m
Data from the previous 72 hours. | See also: Recent months at Cerberus
Date/Time
EDT
Wind Sea
Height
m
Swell Vis
km
Cloud Weather Temp
°C
Press
MSL
hPa
Rain since
9am
mm
Dir  Spd
kts
Gust
kts
Height
m
Period
s
Dir
07/09:00pm WSW 13 22 - - - - - - Recent precip. 12.0 1006.6 2.6
07/08:30pm WSW 13 22 - - - - - - - 11.5 1006.4 2.0
07/08:10pm SW 15 25 - - - - - - - 11.9 1006.0 2.0
07/08:00pm WSW 12 23 - - - - - - - 12.0 1006.1 1.8
07/07:30pm WSW 12 19 - - - - - - - 12.4 1005.4 0.8
07/07:00pm WSW 11 18 - - - - - - - 15.2 1004.6 0.0
07/06:30pm SW 12 18 - - - - - - - 16.1 1004.0 0.0
07/06:00pm SW 12 17 - - - - - - - 17.3 1003.8 0.0
07/05:30pm SW 13 20 - - - - - - - 16.9 1003.8 0.0
07/05:00pm SW 14 21 - - - - - - - 17.0 1004.1 0.0
07/04:30pm SW 14 23 - - - - - - - 17.4 1004.3 0.0
07/04:00pm SW 14 22 - - - - - - - 16.5 1004.2 0.0
07/03:30pm SW 14 20 - - - - - - - 15.6 1004.4 0.0
07/03:00pm SSW 14 19 - - - - - - - 16.5 1004.4 0.0
07/02:30pm SW 14 19 - - - - - - - 17.1 1004.2 0.0
07/02:00pm SSW 12 17 - - - - - - - 16.9 1004.3 0.0
07/01:30pm SSW 9 15 - - - - - - - 16.4 1004.5 0.0
07/01:00pm SSW 9 14 - - - - - - - 15.8 1004.5 0.0
07/12:30pm SSW 9 16 - - - - - - - 16.1 1004.5 0.0
07/12:00pm SSW 10 19 - - - - - - - 16.4 1004.5 0.0
07/11:30am SSW 10 17 - - - - - - - 15.9 1004.4 0.0
07/11:00am SSW 10 14 - - - - - - - 16.4 1004.4 0.0
07/10:30am SSW 8 12 - - - - - - - 15.9 1004.2 0.0
07/10:00am SSW 9 14 - - - - - - - 16.4 1004.1 0.0
07/09:30am SSW 8 13 - - - - - - - 16.8 1004.2 0.0
07/09:00am SSW 7 10 - - - - - - - 15.8 1004.4 0.2
07/08:30am SW 4 7 - - - - - - - 15.6 1004.2 0.2
07/08:00am CALM 0 0 - - - - - - - 15.4 1003.9 0.2
07/07:30am CALM 0 0 - - - - - - - 13.0 1003.9 0.2
07/07:00am CALM 0 0 - - - - - - - 10.9 1003.9 0.2
07/06:30am CALM 0 0 - - - - - - - 8.9 1003.9 0.2
07/06:00am CALM 0 0 - - - - - - - 8.9 1003.8 0.2
07/05:30am CALM 0 0 - - - - - - - 8.9 1003.8 0.2
07/05:00am CALM 0 0 - - - - - - - 8.2 1003.6 0.2
07/04:30am CALM 0 2 - - - - - - - 8.4 1003.8 0.2
07/04:00am CALM 0 0 - - - - - - - 8.4 1004.0 0.2
07/03:30am CALM 0 0 - - - - - - - 8.6 1004.2 0.2
07/03:00am CALM 0 0 - - - - - - - 8.3 1004.6 0.2
07/02:30am NNW 1 3 - - - - - - - 8.7 1005.0 0.2
07/02:00am NNW 2 3 - - - - - - - 8.8 1005.3 0.2
07/01:30am NNW 2 2 - - - - - - - 8.7 1005.7 0.2
07/01:00am CALM 0 0 - - - - - - - 9.0 1006.1 0.2
07/12:30am NNW 1 2 - - - - - - - 9.7 1006.4 0.2
07/12:00am CALM 0 0 - - - - - - - 9.9 1006.6 0.2
 
Date/Time
EDT
Wind Sea
Height
m
Swell Vis
km
Cloud Weather Temp
°C
Press
MSL
hPa
Rain since
9am
mm
Dir  Spd
kts
Gust
kts
Height
m
Period
s
Dir
06/11:30pm CALM 0 0 - - - - - - - 10.1 1007.2 0.2
06/11:00pm CALM 0 0 - - - - - - - 10.6 1007.6 0.2
06/10:30pm SE 3 4 - - - - - - - 11.7 1007.8 0.2
06/10:00pm SE 2 2 - - - - - - - 11.5 1008.1 0.2
06/09:30pm SE 1 3 - - - - - - - 12.0 1008.1 0.2
06/09:00pm SE 2 3 - - - - - - - 12.6 1007.8 0.2
06/08:30pm SE 2 3 - - - - - - - 13.3 1008.0 0.2
06/08:00pm SE 5 8 - - - - - - - 14.4 1008.0 0.2
06/07:30pm SE 5 8 - - - - - - - 15.9 1008.0 0.2
06/07:00pm SSE 6 10 - - - - - - - 16.0 1008.1 0.2
06/06:30pm S 7 11 - - - - - - - 16.7 1008.1 0.2
06/06:00pm S 7 10 - - - - - - - 16.2 1008.2 0.2
06/05:30pm SSW 7 11 - - - - - - - 17.3 1008.5 0.2
06/05:00pm S 8 12 - - - - - - - 18.0 1008.7 0.2
06/04:30pm S 8 13 - - - - - - - 17.3 1008.9 0.2
06/04:00pm SSW 9 12 - - - - - - - 17.4 1009.0 0.2
06/03:30pm S 9 16 - - - - - - - 17.5 1009.2 0.2
06/03:00pm S 8 13 - - - - - - - 17.6 1009.3 0.2
06/02:30pm S 8 13 - - - - - - - 18.3 1009.6 0.2
06/02:00pm S 8 12 - - - - - - - 18.2 1010.0 0.2
06/01:30pm SSE 6 11 - - - - - - - 16.9 1010.4 0.2
06/01:00pm SE 4 6 - - - - - - - 17.1 1010.8 0.2
06/12:30pm ESE 6 9 - - - - - - - 17.2 1011.0 0.2
06/12:00pm ESE 6 8 - - - - - - Rain 17.8 1011.0 0.2
06/11:30am ESE 6 10 - - - - - - - 17.6 1011.1 0.0
06/11:00am ESE 5 9 - - - - - - - 16.9 1011.3 0.0
06/10:30am ESE 5 10 - - - - - - - 16.6 1011.7 0.0
06/10:00am E 3 9 - - - - - - - - 1012.0 0.0
06/09:30am E 5 7 - - - - - - - - 1012.1 0.0
06/09:00am ENE 5 8 - - - - - - - - 1012.3 2.8
06/08:30am E 3 4 - - - - - - - - 1012.4 2.8
06/08:00am ESE 2 3 - - - - - - - - 1012.3 2.8
06/07:30am ESE 3 5 - - - - - - - - 1012.0 2.8
06/07:00am E 5 9 - - - - - - - - 1011.8 2.8
06/06:30am ESE 5 10 - - - - - - - - 1011.7 2.6
06/06:00am ESE 5 9 - - - - - - - - 1011.4 2.2
06/05:30am E 3 4 - - - - - - - - 1011.1 2.2
06/05:00am SE 2 3 - - - - - - - - 1011.2 2.2
06/04:30am SE 3 5 - - - - - - - - 1011.1 2.2
06/04:00am SE 3 4 - - - - - - - - 1011.1 2.2
06/03:30am SE 2 4 - - - - - - - - 1011.1 2.2
06/03:00am SE 2 2 - - - - - - - - 1011.2 2.2
06/02:30am SE 2 3 - - - - - - - - 1011.2 2.2
06/02:00am ESE 3 5 - - - - - - - - 1011.4 2.2
06/01:30am ESE 5 10 - - - - - - - - 1011.3 2.2
06/01:00am ESE 7 13 - - - - - - - - 1011.7 2.0
06/12:30am SSW 7 11 - - - - - - - - 1011.7 1.8
06/12:00am SSW 8 13 - - - - - - Recent precip. - 1012.0 1.8
 
Date/Time
EDT
Wind Sea
Height
m
Swell Vis
km
Cloud Weather Temp
°C
Press
MSL
hPa
Rain since
9am
mm
Dir  Spd
kts
Gust
kts
Height
m
Period
s
Dir
05/11:30pm SSW 9 14 - - - - - - - - 1012.3 1.6
05/11:00pm SW 12 17 - - - - - - - - 1012.5 1.6
05/10:30pm SSW 13 21 - - - - - - - - 1012.6 1.6
05/10:00pm SW 13 21 - - - - - - - - 1012.5 1.6
05/09:30pm SW 13 21 - - - - - - - - 1012.4 1.6
05/09:00pm SW 15 23 - - - - - - - - 1012.2 1.6
05/08:30pm SW 15 23 - - - - - - - 13.4 1012.0 1.6
05/08:00pm SW 13 20 - - - - - - - 13.2 1012.0 1.6
05/07:30pm SW 13 22 - - - - - - - 13.1 1011.9 1.4
05/07:00pm SW 16 25 - - - - - - - 13.2 1011.6 1.0
05/06:32pm SW 15 25 - - - - - - - 14.4 1011.2 0.4
05/06:30pm SW 14 23 - - - - - - - 14.4 1011.2 0.4
05/06:11pm SW 17 27 - - - - - - - 14.5 1010.9 0.4
05/06:00pm SW 18 28 - - - - - - - 14.6 1010.8 0.4
05/05:30pm SW 17 27 - - - - - - - 14.9 1010.7 0.4
05/05:00pm SW 16 28 - - - - - - - 15.1 1010.7 0.4
05/04:30pm SW 16 28 - - - - - - - 15.3 1010.7 0.4
05/04:09pm SW 18 30 - - - - - - - 15.5 1010.5 0.4
05/04:00pm SW 18 27 - - - - - - - 15.5 1010.5 0.4
05/03:30pm SW 18 28 - - - - - - - 16.3 1010.4 0.4
05/03:11pm SW 18 28 - - - - - - - 16.4 1010.4 0.4
05/03:00pm SW 16 24 - - - - - - - 17.7 1010.4 0.4
05/02:46pm SW 17 27 - - - - - - - 17.5 1010.3 0.4
05/02:30pm SW 17 27 - - - - - - - 17.4 1010.3 0.4
05/02:00pm SW 18 26 - - - - - - - 16.7 1010.5 0.4
05/01:30pm SW 17 27 - - - - - - - 14.0 1010.8 0.2
05/01:00pm SW 15 28 - - - - - - - 16.8 1010.5 0.0
05/12:54pm SW 15 28 - - - - - - - 16.8 1010.4 0.0
05/12:30pm SW 14 23 - - - - - - - 16.0 1010.3 0.0
05/12:00pm SW 15 26 - - - - - - - 16.1 1010.1 0.0
05/11:35am SW 15 26 - - - - - - - 16.8 1009.9 0.0
05/11:30am SW 14 24 - - - - - - - 16.5 1009.8 0.0
05/11:00am SW 15 23 - - - - - - - 16.1 1009.7 0.0
05/10:35am SW 15 27 - - - - - - - 15.7 1009.5 0.0
05/10:30am SW 14 23 - - - - - - - 15.1 1009.5 0.0
05/10:00am SW 15 25 - - - - - - - 15.4 1009.0 0.0
05/09:30am SW 13 21 - - - - - - - 15.1 1009.1 0.0
05/09:00am SW 12 20 - - - - - - Recent precip. 14.7 1009.0 0.8
05/08:30am SW 13 20 - - - - - - - 14.7 1008.8 0.6
05/08:00am SW 12 21 - - - - - - - 14.3 1008.3 0.6
05/07:30am W 7 12 - - - - - - - 15.8 1007.9 0.0
05/07:00am WSW 10 18 - - - - - - - 16.1 1007.6 0.0
05/06:30am WSW 8 13 - - - - - - - 16.1 1007.4 0.0
05/06:00am WSW 7 10 - - - - - - - 16.1 1007.2 0.0
05/05:30am WSW 6 12 - - - - - - - 16.1 1006.8 0.0
05/05:00am W 7 12 - - - - - - - 16.2 1006.4 0.0
05/04:30am WSW 6 9 - - - - - - - 16.3 1006.4 0.0
05/04:00am WSW 7 12 - - - - - - - 16.7 1006.3 0.0
05/03:30am WSW 7 13 - - - - - - - 16.6 1005.8 0.0
05/03:00am WSW 7 12 - - - - - - - 16.5 1005.8 0.0
05/02:30am WSW 8 11 - - - - - - - 16.6 1005.9 0.0
05/02:00am WSW 8 13 - - - - - - - 16.8 1005.5 0.0
05/01:30am SW 9 16 - - - - - - - 16.9 1005.5 0.0
05/01:00am SW 12 17 - - - - - - - 17.4 1006.1 0.0
05/12:30am SW 12 18 - - - - - - - 18.3 1005.5 0.0
05/12:00am SW 14 21 - - - - - - - 19.2 1004.9 0.0
 
Date/Time
EDT
Wind Sea
Height
m
Swell Vis
km
Cloud Weather Temp
°C
Press
MSL
hPa
Rain since
9am
mm
Dir  Spd
kts
Gust
kts
Height
m
Period
s
Dir
04/11:30pm SW 13 22 - - - - - - - 21.3 1004.5 0.0
04/11:00pm N 4 5 - - - - - - - 20.0 1003.9 0.0
04/10:30pm CALM 0 0 - - - - - - - 20.6 1003.6 0.0
04/10:00pm CALM 0 1 - - - - - - - 21.6 1003.8 0.0
04/09:30pm CALM 0 0 - - - - - - - 21.8 1004.3 0.0

Other formats

Comma delimited format used in spreadsheet applications
http://www.bom.gov.au/fwo/IDV60701/IDV60701.94898.axf

JavaScript Object Notation format (JSON) in row-major order
http://www.bom.gov.au/fwo/IDV60701/IDV60701.94898.json

Data quality

Most of these data are generated automatically and are frequently updated. Quality checks on data are not normally performed. It is possible for incorrect values to appear. Refer to information at About Latest Weather Observations and please check the disclaimer before using these data.